sensor_id;sensor_type;location;lat;lon;timestamp;P1;durP1;ratioP1;P2;durP2;ratioP2
57217;SDS011;43078;52.972;6.482;2023-02-28T00:00:10;16.33;;;3.45;;
57217;SDS011;43078;52.972;6.482;2023-02-28T00:02:38;10.80;;;2.20;;
57217;SDS011;43078;52.972;6.482;2023-02-28T00:05:05;9.63;;;2.53;;
57217;SDS011;43078;52.972;6.482;2023-02-28T00:07:32;12.07;;;2.50;;
57217;SDS011;43078;52.972;6.482;2023-02-28T00:09:58;12.85;;;2.38;;
57217;SDS011;43078;52.972;6.482;2023-02-28T00:12:23;9.65;;;2.40;;
57217;SDS011;43078;52.972;6.482;2023-02-28T00:14:49;9.77;;;2.40;;
57217;SDS011;43078;52.972;6.482;2023-02-28T00:17:15;14.15;;;2.55;;
57217;SDS011;43078;52.972;6.482;2023-02-28T00:19:45;12.48;;;2.80;;
57217;SDS011;43078;52.972;6.482;2023-02-28T00:22:15;12.60;;;2.40;;
57217;SDS011;43078;52.972;6.482;2023-02-28T00:24:42;10.52;;;2.42;;
57217;SDS011;43078;52.972;6.482;2023-02-28T00:27:08;11.35;;;2.00;;
57217;SDS011;43078;52.972;6.482;2023-02-28T00:29:34;12.23;;;2.35;;
57217;SDS011;43078;52.972;6.482;2023-02-28T00:32:00;15.23;;;2.42;;
57217;SDS011;43078;52.972;6.482;2023-02-28T00:34:25;13.38;;;2.72;;
57217;SDS011;43078;52.972;6.482;2023-02-28T00:36:51;14.10;;;2.40;;
57217;SDS011;43078;52.972;6.482;2023-02-28T00:39:17;16.23;;;2.45;;
57217;SDS011;43078;52.972;6.482;2023-02-28T00:41:42;19.10;;;3.38;;
57217;SDS011;43078;52.972;6.482;2023-02-28T00:44:08;17.58;;;2.83;;
57217;SDS011;43078;52.972;6.482;2023-02-28T00:46:34;11.80;;;2.72;;
57217;SDS011;43078;52.972;6.482;2023-02-28T00:49:00;12.20;;;2.65;;
57217;SDS011;43078;52.972;6.482;2023-02-28T00:51:26;15.30;;;2.40;;
57217;SDS011;43078;52.972;6.482;2023-02-28T00:53:51;12.93;;;2.70;;
57217;SDS011;43078;52.972;6.482;2023-02-28T00:56:17;15.45;;;2.67;;
57217;SDS011;43078;52.972;6.482;2023-02-28T00:58:42;11.63;;;2.47;;
57217;SDS011;43078;52.972;6.482;2023-02-28T01:01:08;12.98;;;2.20;;
57217;SDS011;43078;52.972;6.482;2023-02-28T01:03:34;13.30;;;3.38;;
57217;SDS011;43078;52.972;6.482;2023-02-28T01:06:00;10.93;;;2.42;;
57217;SDS011;43078;52.972;6.482;2023-02-28T01:08:25;13.27;;;2.63;;
57217;SDS011;43078;52.972;6.482;2023-02-28T01:10:51;10.45;;;2.20;;
57217;SDS011;43078;52.972;6.482;2023-02-28T01:13:17;13.05;;;2.80;;
57217;SDS011;43078;52.972;6.482;2023-02-28T01:15:51;8.60;;;2.53;;
57217;SDS011;43078;52.972;6.482;2023-02-28T01:18:19;13.23;;;2.42;;
57217;SDS011;43078;52.972;6.482;2023-02-28T01:20:45;11.13;;;2.50;;
57217;SDS011;43078;52.972;6.482;2023-02-28T01:23:11;15.85;;;2.83;;
57217;SDS011;43078;52.972;6.482;2023-02-28T01:25:37;13.07;;;2.20;;
57217;SDS011;43078;52.972;6.482;2023-02-28T01:28:03;10.30;;;2.08;;
57217;SDS011;43078;52.972;6.482;2023-02-28T01:30:30;9.65;;;3.30;;
57217;SDS011;43078;52.972;6.482;2023-02-28T01:32:56;8.02;;;2.35;;
57217;SDS011;43078;52.972;6.482;2023-02-28T01:35:21;7.30;;;2.00;;
57217;SDS011;43078;52.972;6.482;2023-02-28T01:37:47;6.03;;;2.28;;
57217;SDS011;43078;52.972;6.482;2023-02-28T01:40:13;7.00;;;2.33;;
57217;SDS011;43078;52.972;6.482;2023-02-28T01:42:38;7.82;;;2.60;;
57217;SDS011;43078;52.972;6.482;2023-02-28T01:47:54;8.75;;;2.20;;
57217;SDS011;43078;52.972;6.482;2023-02-28T01:50:24;7.18;;;2.33;;
57217;SDS011;43078;52.972;6.482;2023-02-28T01:52:57;5.88;;;2.30;;
57217;SDS011;43078;52.972;6.482;2023-02-28T01:55:29;7.63;;;2.15;;
57217;SDS011;43078;52.972;6.482;2023-02-28T01:57:57;6.28;;;2.20;;
57217;SDS011;43078;52.972;6.482;2023-02-28T02:00:25;9.90;;;2.10;;
57217;SDS011;43078;52.972;6.482;2023-02-28T02:02:56;6.95;;;2.30;;
57217;SDS011;43078;52.972;6.482;2023-02-28T02:05:25;6.75;;;2.45;;
57217;SDS011;43078;52.972;6.482;2023-02-28T02:07:57;5.97;;;2.10;;
57217;SDS011;43078;52.972;6.482;2023-02-28T02:10:35;9.18;;;2.80;;
57217;SDS011;43078;52.972;6.482;2023-02-28T02:16:04;8.63;;;2.45;;
57217;SDS011;43078;52.972;6.482;2023-02-28T02:18:36;8.27;;;2.20;;
57217;SDS011;43078;52.972;6.482;2023-02-28T02:21:18;6.72;;;2.30;;
57217;SDS011;43078;52.972;6.482;2023-02-28T02:26:39;5.85;;;2.20;;
57217;SDS011;43078;52.972;6.482;2023-02-28T02:34:35;5.60;;;2.42;;
57217;SDS011;43078;52.972;6.482;2023-02-28T02:40:25;8.15;;;2.95;;
57217;SDS011;43078;52.972;6.482;2023-02-28T02:43:18;8.55;;;2.50;;
57217;SDS011;43078;52.972;6.482;2023-02-28T02:45:49;10.73;;;2.90;;
57217;SDS011;43078;52.972;6.482;2023-02-28T02:48:20;12.27;;;3.67;;
57217;SDS011;43078;52.972;6.482;2023-02-28T02:50:56;5.07;;;2.67;;
57217;SDS011;43078;52.972;6.482;2023-02-28T02:53:27;7.90;;;3.28;;
57217;SDS011;43078;52.972;6.482;2023-02-28T02:55:55;10.13;;;3.58;;
57217;SDS011;43078;52.972;6.482;2023-02-28T02:58:24;7.13;;;3.80;;
57217;SDS011;43078;52.972;6.482;2023-02-28T03:00:54;8.40;;;3.17;;
57217;SDS011;43078;52.972;6.482;2023-02-28T03:03:23;8.43;;;2.97;;
57217;SDS011;43078;52.972;6.482;2023-02-28T03:05:56;8.27;;;3.10;;
57217;SDS011;43078;52.972;6.482;2023-02-28T03:08:23;9.48;;;3.50;;
57217;SDS011;43078;52.972;6.482;2023-02-28T03:10:50;6.32;;;3.00;;
57217;SDS011;43078;52.972;6.482;2023-02-28T03:18:54;6.45;;;3.10;;
57217;SDS011;43078;52.972;6.482;2023-02-28T03:24:18;6.68;;;3.03;;
57217;SDS011;43078;52.972;6.482;2023-02-28T03:26:52;6.53;;;3.22;;
57217;SDS011;43078;52.972;6.482;2023-02-28T03:29:32;8.27;;;3.17;;
57217;SDS011;43078;52.972;6.482;2023-02-28T03:34:46;7.65;;;3.22;;
57217;SDS011;43078;52.972;6.482;2023-02-28T03:37:20;10.07;;;3.78;;
57217;SDS011;43078;52.972;6.482;2023-02-28T03:39:54;9.15;;;3.97;;
57217;SDS011;43078;52.972;6.482;2023-02-28T03:42:25;10.15;;;3.63;;
57217;SDS011;43078;52.972;6.482;2023-02-28T03:44:56;6.25;;;3.28;;
57217;SDS011;43078;52.972;6.482;2023-02-28T03:47:45;6.97;;;3.60;;
57217;SDS011;43078;52.972;6.482;2023-02-28T03:50:21;6.63;;;2.90;;
57217;SDS011;43078;52.972;6.482;2023-02-28T03:52:50;8.02;;;3.47;;
57217;SDS011;43078;52.972;6.482;2023-02-28T03:55:20;9.52;;;3.53;;
57217;SDS011;43078;52.972;6.482;2023-02-28T03:57:50;6.63;;;3.60;;
57217;SDS011;43078;52.972;6.482;2023-02-28T04:00:27;7.65;;;3.53;;
57217;SDS011;43078;52.972;6.482;2023-02-28T04:02:56;7.78;;;3.63;;
57217;SDS011;43078;52.972;6.482;2023-02-28T04:05:22;6.47;;;3.33;;
57217;SDS011;43078;52.972;6.482;2023-02-28T04:07:49;11.48;;;3.42;;
57217;SDS011;43078;52.972;6.482;2023-02-28T04:10:14;6.88;;;2.95;;
57217;SDS011;43078;52.972;6.482;2023-02-28T04:12:41;8.13;;;3.45;;
57217;SDS011;43078;52.972;6.482;2023-02-28T04:15:07;6.55;;;3.30;;
57217;SDS011;43078;52.972;6.482;2023-02-28T04:17:33;7.35;;;3.30;;
57217;SDS011;43078;52.972;6.482;2023-02-28T04:19:58;8.40;;;4.00;;
57217;SDS011;43078;52.972;6.482;2023-02-28T04:22:24;6.60;;;3.33;;
57217;SDS011;43078;52.972;6.482;2023-02-28T04:24:52;7.53;;;3.28;;
57217;SDS011;43078;52.972;6.482;2023-02-28T04:27:19;6.47;;;3.35;;
57217;SDS011;43078;52.972;6.482;2023-02-28T04:29:46;7.57;;;3.38;;
57217;SDS011;43078;52.972;6.482;2023-02-28T04:32:11;6.78;;;3.28;;
57217;SDS011;43078;52.972;6.482;2023-02-28T04:34:37;5.68;;;3.08;;
57217;SDS011;43078;52.972;6.482;2023-02-28T04:37:05;7.00;;;3.47;;
57217;SDS011;43078;52.972;6.482;2023-02-28T04:39:34;6.10;;;3.50;;
57217;SDS011;43078;52.972;6.482;2023-02-28T04:42:00;6.70;;;3.30;;
57217;SDS011;43078;52.972;6.482;2023-02-28T04:44:26;7.07;;;3.35;;
57217;SDS011;43078;52.972;6.482;2023-02-28T04:46:52;6.93;;;3.30;;
57217;SDS011;43078;52.972;6.482;2023-02-28T04:49:17;6.50;;;3.25;;
57217;SDS011;43078;52.972;6.482;2023-02-28T04:51:43;9.18;;;4.35;;
57217;SDS011;43078;52.972;6.482;2023-02-28T04:54:08;7.05;;;3.85;;
57217;SDS011;43078;52.972;6.482;2023-02-28T04:56:34;7.07;;;3.22;;
57217;SDS011;43078;52.972;6.482;2023-02-28T04:59:00;8.23;;;3.30;;
57217;SDS011;43078;52.972;6.482;2023-02-28T05:01:27;9.25;;;4.05;;
57217;SDS011;43078;52.972;6.482;2023-02-28T05:03:55;9.23;;;4.93;;
57217;SDS011;43078;52.972;6.482;2023-02-28T05:06:23;10.27;;;5.15;;
57217;SDS011;43078;52.972;6.482;2023-02-28T05:08:50;7.57;;;4.50;;
57217;SDS011;43078;52.972;6.482;2023-02-28T05:11:27;7.55;;;4.35;;
57217;SDS011;43078;52.972;6.482;2023-02-28T05:13:54;8.45;;;4.93;;
57217;SDS011;43078;52.972;6.482;2023-02-28T05:16:20;6.65;;;4.32;;
57217;SDS011;43078;52.972;6.482;2023-02-28T05:18:46;6.57;;;4.07;;
57217;SDS011;43078;52.972;6.482;2023-02-28T05:21:22;9.10;;;4.70;;
57217;SDS011;43078;52.972;6.482;2023-02-28T05:23:57;10.30;;;5.30;;
57217;SDS011;43078;52.972;6.482;2023-02-28T05:26:25;9.18;;;5.15;;
57217;SDS011;43078;52.972;6.482;2023-02-28T05:28:51;7.88;;;4.80;;
57217;SDS011;43078;52.972;6.482;2023-02-28T05:31:17;8.82;;;5.05;;
57217;SDS011;43078;52.972;6.482;2023-02-28T05:33:43;9.10;;;5.45;;
57217;SDS011;43078;52.972;6.482;2023-02-28T05:36:09;10.45;;;5.93;;
57217;SDS011;43078;52.972;6.482;2023-02-28T05:38:34;8.05;;;5.30;;
57217;SDS011;43078;52.972;6.482;2023-02-28T05:41:04;9.05;;;5.80;;
57217;SDS011;43078;52.972;6.482;2023-02-28T05:46:01;10.38;;;7.28;;
57217;SDS011;43078;52.972;6.482;2023-02-28T05:48:36;10.13;;;6.47;;
57217;SDS011;43078;52.972;6.482;2023-02-28T05:51:03;9.93;;;6.95;;
57217;SDS011;43078;52.972;6.482;2023-02-28T05:53:30;10.40;;;7.30;;
57217;SDS011;43078;52.972;6.482;2023-02-28T06:03:58;9.55;;;6.82;;
57217;SDS011;43078;52.972;6.482;2023-02-28T06:06:25;11.27;;;6.93;;
57217;SDS011;43078;52.972;6.482;2023-02-28T06:08:51;10.95;;;6.95;;
57217;SDS011;43078;52.972;6.482;2023-02-28T06:11:26;10.20;;;6.45;;
57217;SDS011;43078;52.972;6.482;2023-02-28T06:13:58;11.45;;;7.28;;
57217;SDS011;43078;52.972;6.482;2023-02-28T06:19:02;10.60;;;6.35;;
57217;SDS011;43078;52.972;6.482;2023-02-28T06:21:34;12.20;;;7.57;;
57217;SDS011;43078;52.972;6.482;2023-02-28T06:24:16;10.73;;;7.10;;
57217;SDS011;43078;52.972;6.482;2023-02-28T06:26:45;10.80;;;7.07;;
57217;SDS011;43078;52.972;6.482;2023-02-28T06:29:22;12.48;;;7.80;;
57217;SDS011;43078;52.972;6.482;2023-02-28T06:31:54;12.85;;;7.63;;
57217;SDS011;43078;52.972;6.482;2023-02-28T06:34:26;12.10;;;7.57;;
57217;SDS011;43078;52.972;6.482;2023-02-28T06:36:58;11.70;;;7.70;;
57217;SDS011;43078;52.972;6.482;2023-02-28T06:39:36;10.50;;;7.05;;
57217;SDS011;43078;52.972;6.482;2023-02-28T06:42:08;12.40;;;7.53;;
57217;SDS011;43078;52.972;6.482;2023-02-28T06:44:42;11.70;;;7.70;;
57217;SDS011;43078;52.972;6.482;2023-02-28T06:47:16;12.43;;;7.70;;
57217;SDS011;43078;52.972;6.482;2023-02-28T06:49:51;12.70;;;7.32;;
57217;SDS011;43078;52.972;6.482;2023-02-28T06:52:26;11.18;;;7.72;;
57217;SDS011;43078;52.972;6.482;2023-02-28T06:54:55;12.10;;;7.90;;
57217;SDS011;43078;52.972;6.482;2023-02-28T06:57:30;12.27;;;7.18;;
57217;SDS011;43078;52.972;6.482;2023-02-28T07:00:14;10.82;;;7.53;;
57217;SDS011;43078;52.972;6.482;2023-02-28T07:03:00;11.00;;;7.80;;
57217;SDS011;43078;52.972;6.482;2023-02-28T07:05:48;12.57;;;7.72;;
57217;SDS011;43078;52.972;6.482;2023-02-28T07:08:26;12.85;;;8.05;;
57217;SDS011;43078;52.972;6.482;2023-02-28T07:11:02;10.68;;;7.00;;
57217;SDS011;43078;52.972;6.482;2023-02-28T07:13:37;12.05;;;7.43;;
57217;SDS011;43078;52.972;6.482;2023-02-28T07:16:09;12.93;;;7.90;;
57217;SDS011;43078;52.972;6.482;2023-02-28T07:18:54;12.32;;;8.18;;
57217;SDS011;43078;52.972;6.482;2023-02-28T07:21:20;12.43;;;8.27;;
57217;SDS011;43078;52.972;6.482;2023-02-28T07:23:46;11.60;;;8.35;;
57217;SDS011;43078;52.972;6.482;2023-02-28T07:26:13;12.40;;;8.18;;
57217;SDS011;43078;52.972;6.482;2023-02-28T07:28:41;11.05;;;7.78;;
57217;SDS011;43078;52.972;6.482;2023-02-28T07:31:07;11.48;;;7.47;;
57217;SDS011;43078;52.972;6.482;2023-02-28T07:33:33;12.10;;;7.70;;
57217;SDS011;43078;52.972;6.482;2023-02-28T07:36:00;11.90;;;7.30;;
57217;SDS011;43078;52.972;6.482;2023-02-28T07:38:30;11.27;;;7.70;;
57217;SDS011;43078;52.972;6.482;2023-02-28T07:40:58;12.65;;;7.80;;
57217;SDS011;43078;52.972;6.482;2023-02-28T07:43:23;12.27;;;8.15;;
57217;SDS011;43078;52.972;6.482;2023-02-28T07:45:49;11.57;;;7.97;;
57217;SDS011;43078;52.972;6.482;2023-02-28T07:48:14;11.13;;;7.50;;
57217;SDS011;43078;52.972;6.482;2023-02-28T07:50:40;13.10;;;8.20;;
57217;SDS011;43078;52.972;6.482;2023-02-28T07:53:06;10.18;;;7.28;;
57217;SDS011;43078;52.972;6.482;2023-02-28T07:55:31;11.73;;;8.23;;
57217;SDS011;43078;52.972;6.482;2023-02-28T07:57:57;12.27;;;7.78;;
57217;SDS011;43078;52.972;6.482;2023-02-28T08:00:23;10.43;;;7.30;;
57217;SDS011;43078;52.972;6.482;2023-02-28T08:02:49;13.75;;;8.13;;
57217;SDS011;43078;52.972;6.482;2023-02-28T08:05:15;13.13;;;8.45;;
57217;SDS011;43078;52.972;6.482;2023-02-28T08:07:41;10.30;;;7.72;;
57217;SDS011;43078;52.972;6.482;2023-02-28T08:10:07;11.32;;;8.10;;
57217;SDS011;43078;52.972;6.482;2023-02-28T08:12:34;12.50;;;7.85;;
57217;SDS011;43078;52.972;6.482;2023-02-28T08:15:00;13.48;;;9.43;;
57217;SDS011;43078;52.972;6.482;2023-02-28T08:17:26;14.95;;;9.48;;
57217;SDS011;43078;52.972;6.482;2023-02-28T08:19:52;12.13;;;8.05;;
57217;SDS011;43078;52.972;6.482;2023-02-28T08:22:17;11.02;;;7.90;;
57217;SDS011;43078;52.972;6.482;2023-02-28T08:24:43;14.30;;;8.32;;
57217;SDS011;43078;52.972;6.482;2023-02-28T08:27:09;12.30;;;8.25;;
57217;SDS011;43078;52.972;6.482;2023-02-28T08:29:36;13.60;;;7.97;;
57217;SDS011;43078;52.972;6.482;2023-02-28T08:32:03;14.60;;;9.07;;
57217;SDS011;43078;52.972;6.482;2023-02-28T08:34:29;11.93;;;8.25;;
57217;SDS011;43078;52.972;6.482;2023-02-28T08:36:55;11.02;;;8.05;;
57217;SDS011;43078;52.972;6.482;2023-02-28T08:39:20;10.25;;;7.70;;
57217;SDS011;43078;52.972;6.482;2023-02-28T08:41:46;11.85;;;7.95;;
57217;SDS011;43078;52.972;6.482;2023-02-28T08:44:12;13.13;;;8.55;;
57217;SDS011;43078;52.972;6.482;2023-02-28T08:46:37;14.70;;;8.65;;
57217;SDS011;43078;52.972;6.482;2023-02-28T08:49:04;11.75;;;8.02;;
57217;SDS011;43078;52.972;6.482;2023-02-28T08:51:29;11.82;;;8.50;;
57217;SDS011;43078;52.972;6.482;2023-02-28T08:53:57;12.90;;;8.23;;
57217;SDS011;43078;52.972;6.482;2023-02-28T08:56:25;13.18;;;8.52;;
57217;SDS011;43078;52.972;6.482;2023-02-28T08:58:51;13.55;;;8.55;;
57217;SDS011;43078;52.972;6.482;2023-02-28T09:01:21;12.02;;;8.18;;
57217;SDS011;43078;52.972;6.482;2023-02-28T09:03:49;12.35;;;8.25;;
57217;SDS011;43078;52.972;6.482;2023-02-28T09:06:17;14.20;;;8.60;;
57217;SDS011;43078;52.972;6.482;2023-02-28T09:08:44;12.15;;;8.27;;
57217;SDS011;43078;52.972;6.482;2023-02-28T09:11:10;11.38;;;8.02;;
57217;SDS011;43078;52.972;6.482;2023-02-28T09:13:36;14.52;;;8.23;;
57217;SDS011;43078;52.972;6.482;2023-02-28T09:16:03;14.52;;;8.63;;
57217;SDS011;43078;52.972;6.482;2023-02-28T09:18:30;13.27;;;8.70;;
57217;SDS011;43078;52.972;6.482;2023-02-28T09:20:56;12.88;;;8.68;;
57217;SDS011;43078;52.972;6.482;2023-02-28T09:23:22;13.02;;;8.77;;
57217;SDS011;43078;52.972;6.482;2023-02-28T09:25:49;13.25;;;8.18;;
57217;SDS011;43078;52.972;6.482;2023-02-28T09:28:16;12.13;;;8.63;;
57217;SDS011;43078;52.972;6.482;2023-02-28T09:30:46;13.07;;;8.02;;
57217;SDS011;43078;52.972;6.482;2023-02-28T09:33:14;11.82;;;7.53;;
57217;SDS011;43078;52.972;6.482;2023-02-28T09:35:40;11.75;;;8.23;;
57217;SDS011;43078;52.972;6.482;2023-02-28T09:38:07;12.43;;;8.38;;
57217;SDS011;43078;52.972;6.482;2023-02-28T09:40:38;14.52;;;8.02;;
57217;SDS011;43078;52.972;6.482;2023-02-28T09:43:12;12.32;;;8.07;;
57217;SDS011;43078;52.972;6.482;2023-02-28T09:45:40;12.65;;;7.95;;
57217;SDS011;43078;52.972;6.482;2023-02-28T09:48:21;14.90;;;8.73;;
57217;SDS011;43078;52.972;6.482;2023-02-28T09:50:59;13.20;;;7.55;;
57217;SDS011;43078;52.972;6.482;2023-02-28T09:53:29;12.57;;;7.85;;
57217;SDS011;43078;52.972;6.482;2023-02-28T09:55:59;10.55;;;7.93;;
57217;SDS011;43078;52.972;6.482;2023-02-28T09:58:40;11.40;;;7.47;;
57217;SDS011;43078;52.972;6.482;2023-02-28T10:06:39;12.77;;;7.65;;
57217;SDS011;43078;52.972;6.482;2023-02-28T10:09:11;12.95;;;7.93;;
57217;SDS011;43078;52.972;6.482;2023-02-28T10:11:42;11.27;;;7.30;;
57217;SDS011;43078;52.972;6.482;2023-02-28T10:14:12;10.50;;;6.47;;
57217;SDS011;43078;52.972;6.482;2023-02-28T10:19:39;9.30;;;6.18;;
57217;SDS011;43078;52.972;6.482;2023-02-28T10:22:15;12.40;;;7.20;;
57217;SDS011;43078;52.972;6.482;2023-02-28T10:24:49;11.32;;;7.40;;
57217;SDS011;43078;52.972;6.482;2023-02-28T10:27:20;12.75;;;6.80;;
57217;SDS011;43078;52.972;6.482;2023-02-28T10:29:49;11.85;;;7.47;;
57217;SDS011;43078;52.972;6.482;2023-02-28T10:32:20;10.05;;;5.53;;
57217;SDS011;43078;52.972;6.482;2023-02-28T10:37:40;9.40;;;5.93;;
57217;SDS011;43078;52.972;6.482;2023-02-28T10:40:25;10.82;;;5.45;;
57217;SDS011;43078;52.972;6.482;2023-02-28T10:42:56;9.35;;;5.65;;
57217;SDS011;43078;52.972;6.482;2023-02-28T10:45:29;9.07;;;4.10;;
57217;SDS011;43078;52.972;6.482;2023-02-28T10:50:34;7.90;;;5.75;;
57217;SDS011;43078;52.972;6.482;2023-02-28T10:58:27;9.40;;;6.00;;
57217;SDS011;43078;52.972;6.482;2023-02-28T11:00:55;7.22;;;4.18;;
57217;SDS011;43078;52.972;6.482;2023-02-28T11:03:25;9.30;;;5.55;;
57217;SDS011;43078;52.972;6.482;2023-02-28T11:05:55;8.70;;;4.38;;
57217;SDS011;43078;52.972;6.482;2023-02-28T11:08:22;14.15;;;8.30;;
57217;SDS011;43078;52.972;6.482;2023-02-28T11:10:56;10.70;;;6.95;;
57217;SDS011;43078;52.972;6.482;2023-02-28T11:13:35;8.75;;;6.07;;
57217;SDS011;43078;52.972;6.482;2023-02-28T11:16:07;8.70;;;4.88;;
57217;SDS011;43078;52.972;6.482;2023-02-28T11:18:47;8.68;;;5.35;;
57217;SDS011;43078;52.972;6.482;2023-02-28T11:21:17;7.47;;;5.55;;
57217;SDS011;43078;52.972;6.482;2023-02-28T11:26:49;7.28;;;4.82;;
57217;SDS011;43078;52.972;6.482;2023-02-28T11:29:17;10.10;;;5.10;;
57217;SDS011;43078;52.972;6.482;2023-02-28T11:32:00;8.48;;;5.25;;
57217;SDS011;43078;52.972;6.482;2023-02-28T11:34:33;8.85;;;5.03;;
57217;SDS011;43078;52.972;6.482;2023-02-28T11:37:00;8.95;;;5.25;;
57217;SDS011;43078;52.972;6.482;2023-02-28T11:39:29;8.35;;;5.20;;
57217;SDS011;43078;52.972;6.482;2023-02-28T11:53:28;8.13;;;4.90;;
57217;SDS011;43078;52.972;6.482;2023-02-28T11:56:14;8.88;;;5.00;;
57217;SDS011;43078;52.972;6.482;2023-02-28T12:07:37;7.70;;;4.93;;
57217;SDS011;43078;52.972;6.482;2023-02-28T12:10:24;9.70;;;5.13;;
57217;SDS011;43078;52.972;6.482;2023-02-28T12:27:11;8.95;;;4.95;;
57217;SDS011;43078;52.972;6.482;2023-02-28T12:29:43;9.10;;;5.80;;
57217;SDS011;43078;52.972;6.482;2023-02-28T12:32:33;8.18;;;5.05;;
57217;SDS011;43078;52.972;6.482;2023-02-28T12:35:06;7.22;;;4.85;;
57217;SDS011;43078;52.972;6.482;2023-02-28T12:40:22;6.53;;;4.28;;
57217;SDS011;43078;52.972;6.482;2023-02-28T12:43:02;9.88;;;4.97;;
57217;SDS011;43078;52.972;6.482;2023-02-28T12:45:43;9.50;;;5.05;;
57217;SDS011;43078;52.972;6.482;2023-02-28T12:49:09;8.13;;;5.13;;
57217;SDS011;43078;52.972;6.482;2023-02-28T12:51:42;8.25;;;5.30;;
57217;SDS011;43078;52.972;6.482;2023-02-28T12:57:04;8.20;;;5.20;;
57217;SDS011;43078;52.972;6.482;2023-02-28T12:59:57;8.40;;;4.53;;
57217;SDS011;43078;52.972;6.482;2023-02-28T13:08:07;7.20;;;4.72;;
57217;SDS011;43078;52.972;6.482;2023-02-28T13:11:07;6.82;;;4.80;;
57217;SDS011;43078;52.972;6.482;2023-02-28T13:14:02;7.28;;;4.55;;
57217;SDS011;43078;52.972;6.482;2023-02-28T13:19:25;7.88;;;4.47;;
57217;SDS011;43078;52.972;6.482;2023-02-28T13:21:54;7.68;;;4.68;;
57217;SDS011;43078;52.972;6.482;2023-02-28T13:29:43;8.45;;;4.45;;
57217;SDS011;43078;52.972;6.482;2023-02-28T13:32:28;7.00;;;4.10;;
57217;SDS011;43078;52.972;6.482;2023-02-28T13:37:36;7.85;;;4.35;;
57217;SDS011;43078;52.972;6.482;2023-02-28T13:40:29;11.13;;;5.03;;
57217;SDS011;43078;52.972;6.482;2023-02-28T13:43:10;8.70;;;4.68;;
57217;SDS011;43078;52.972;6.482;2023-02-28T13:45:36;10.30;;;4.50;;
57217;SDS011;43078;52.972;6.482;2023-02-28T13:48:14;8.52;;;4.32;;
57217;SDS011;43078;52.972;6.482;2023-02-28T13:50:42;7.88;;;4.80;;
57217;SDS011;43078;52.972;6.482;2023-02-28T14:01:16;8.07;;;4.40;;
57217;SDS011;43078;52.972;6.482;2023-02-28T14:04:25;8.18;;;4.70;;
57217;SDS011;43078;52.972;6.482;2023-02-28T14:07:01;7.68;;;3.58;;
57217;SDS011;43078;52.972;6.482;2023-02-28T14:09:29;8.73;;;4.57;;
57217;SDS011;43078;52.972;6.482;2023-02-28T14:15:24;12.43;;;5.30;;
57217;SDS011;43078;52.972;6.482;2023-02-28T14:18:04;7.20;;;4.88;;
57217;SDS011;43078;52.972;6.482;2023-02-28T14:20:42;8.43;;;5.38;;
57217;SDS011;43078;52.972;6.482;2023-02-28T14:34:29;9.35;;;4.97;;
57217;SDS011;43078;52.972;6.482;2023-02-28T14:37:02;8.70;;;4.97;;
57217;SDS011;43078;52.972;6.482;2023-02-28T14:39:29;9.32;;;5.53;;
57217;SDS011;43078;52.972;6.482;2023-02-28T14:41:56;10.48;;;5.43;;
57217;SDS011;43078;52.972;6.482;2023-02-28T14:44:28;8.93;;;4.72;;
57217;SDS011;43078;52.972;6.482;2023-02-28T14:46:55;10.10;;;5.10;;
57217;SDS011;43078;52.972;6.482;2023-02-28T14:49:42;7.68;;;4.85;;
57217;SDS011;43078;52.972;6.482;2023-02-28T14:52:20;10.80;;;5.15;;
57217;SDS011;43078;52.972;6.482;2023-02-28T14:54:53;11.15;;;5.47;;
57217;SDS011;43078;52.972;6.482;2023-02-28T14:59:56;10.70;;;5.18;;
57217;SDS011;43078;52.972;6.482;2023-02-28T15:02:46;13.00;;;5.60;;
57217;SDS011;43078;52.972;6.482;2023-02-28T15:07:38;10.18;;;5.40;;
57217;SDS011;43078;52.972;6.482;2023-02-28T15:10:16;7.93;;;4.90;;
57217;SDS011;43078;52.972;6.482;2023-02-28T15:12:52;9.23;;;5.13;;
57217;SDS011;43078;52.972;6.482;2023-02-28T15:15:22;8.50;;;4.40;;
57217;SDS011;43078;52.972;6.482;2023-02-28T15:18:07;10.40;;;5.10;;
57217;SDS011;43078;52.972;6.482;2023-02-28T15:20:40;9.43;;;5.40;;
57217;SDS011;43078;52.972;6.482;2023-02-28T15:23:09;9.20;;;5.50;;
57217;SDS011;43078;52.972;6.482;2023-02-28T15:25:36;8.85;;;5.40;;
57217;SDS011;43078;52.972;6.482;2023-02-28T15:28:02;11.50;;;5.60;;
57217;SDS011;43078;52.972;6.482;2023-02-28T15:30:30;8.70;;;5.03;;
57217;SDS011;43078;52.972;6.482;2023-02-28T15:35:37;10.50;;;5.55;;
57217;SDS011;43078;52.972;6.482;2023-02-28T15:38:11;11.32;;;5.93;;
57217;SDS011;43078;52.972;6.482;2023-02-28T15:40:50;11.82;;;5.35;;
57217;SDS011;43078;52.972;6.482;2023-02-28T15:45:55;8.82;;;5.47;;
57217;SDS011;43078;52.972;6.482;2023-02-28T15:51:06;9.82;;;5.88;;
57217;SDS011;43078;52.972;6.482;2023-02-28T15:53:33;8.50;;;5.43;;
57217;SDS011;43078;52.972;6.482;2023-02-28T15:58:53;10.02;;;5.95;;
57217;SDS011;43078;52.972;6.482;2023-02-28T16:01:30;9.60;;;5.50;;
57217;SDS011;43078;52.972;6.482;2023-02-28T16:04:01;11.73;;;5.72;;
57217;SDS011;43078;52.972;6.482;2023-02-28T16:06:33;8.60;;;5.60;;
57217;SDS011;43078;52.972;6.482;2023-02-28T16:08:59;10.38;;;5.68;;
57217;SDS011;43078;52.972;6.482;2023-02-28T16:11:25;9.25;;;5.60;;
57217;SDS011;43078;52.972;6.482;2023-02-28T16:13:51;12.98;;;6.15;;
57217;SDS011;43078;52.972;6.482;2023-02-28T16:16:18;10.95;;;5.97;;
57217;SDS011;43078;52.972;6.482;2023-02-28T16:18:49;13.43;;;8.70;;
57217;SDS011;43078;52.972;6.482;2023-02-28T16:21:15;8.65;;;5.90;;
57217;SDS011;43078;52.972;6.482;2023-02-28T16:23:41;11.00;;;6.15;;
57217;SDS011;43078;52.972;6.482;2023-02-28T16:26:06;10.77;;;6.75;;
57217;SDS011;43078;52.972;6.482;2023-02-28T16:28:34;12.40;;;6.75;;
57217;SDS011;43078;52.972;6.482;2023-02-28T16:31:03;11.30;;;6.40;;
57217;SDS011;43078;52.972;6.482;2023-02-28T16:33:31;11.65;;;6.60;;
57217;SDS011;43078;52.972;6.482;2023-02-28T16:35:57;7.85;;;5.55;;
57217;SDS011;43078;52.972;6.482;2023-02-28T16:38:24;9.25;;;6.47;;
57217;SDS011;43078;52.972;6.482;2023-02-28T16:40:50;9.38;;;6.70;;
57217;SDS011;43078;52.972;6.482;2023-02-28T16:43:18;9.90;;;6.20;;
57217;SDS011;43078;52.972;6.482;2023-02-28T16:45:47;10.00;;;6.25;;
57217;SDS011;43078;52.972;6.482;2023-02-28T16:48:14;10.95;;;6.43;;
57217;SDS011;43078;52.972;6.482;2023-02-28T16:50:41;11.52;;;6.80;;
57217;SDS011;43078;52.972;6.482;2023-02-28T16:53:09;12.23;;;6.43;;
57217;SDS011;43078;52.972;6.482;2023-02-28T16:55:35;11.23;;;6.50;;
57217;SDS011;43078;52.972;6.482;2023-02-28T16:58:01;11.43;;;7.00;;
57217;SDS011;43078;52.972;6.482;2023-02-28T17:00:28;11.48;;;6.57;;
57217;SDS011;43078;52.972;6.482;2023-02-28T17:02:55;14.10;;;6.75;;
57217;SDS011;43078;52.972;6.482;2023-02-28T17:05:21;10.63;;;6.72;;
57217;SDS011;43078;52.972;6.482;2023-02-28T17:07:48;10.23;;;6.75;;
57217;SDS011;43078;52.972;6.482;2023-02-28T17:10:16;13.10;;;6.80;;
57217;SDS011;43078;52.972;6.482;2023-02-28T17:12:44;10.32;;;6.90;;
57217;SDS011;43078;52.972;6.482;2023-02-28T17:15:11;12.57;;;6.82;;
57217;SDS011;43078;52.972;6.482;2023-02-28T17:17:38;12.57;;;6.70;;
57217;SDS011;43078;52.972;6.482;2023-02-28T17:20:04;9.98;;;6.45;;
57217;SDS011;43078;52.972;6.482;2023-02-28T17:22:30;12.65;;;6.88;;
57217;SDS011;43078;52.972;6.482;2023-02-28T17:24:57;17.13;;;7.15;;
57217;SDS011;43078;52.972;6.482;2023-02-28T17:27:23;15.70;;;6.95;;
57217;SDS011;43078;52.972;6.482;2023-02-28T17:29:50;11.45;;;6.57;;
57217;SDS011;43078;52.972;6.482;2023-02-28T17:32:16;13.30;;;7.22;;
57217;SDS011;43078;52.972;6.482;2023-02-28T17:34:41;14.02;;;7.53;;
57217;SDS011;43078;52.972;6.482;2023-02-28T17:37:08;14.65;;;7.63;;